createdAt,value
2022-09-22T00:00:59.544Z,99.99
2022-09-22T00:01:59.364Z,99.99
2022-09-22T00:02:59.306Z,99.99
2022-09-22T00:03:59.301Z,99.99
2022-09-22T00:04:59.305Z,99.99
2022-09-22T00:05:59.280Z,99.99
2022-09-22T00:06:59.286Z,99.99
2022-09-22T00:07:59.318Z,99.99
2022-09-22T00:08:59.349Z,99.99
2022-09-22T00:09:59.262Z,99.99
2022-09-22T00:10:59.262Z,99.99
2022-09-22T00:11:59.209Z,99.99
2022-09-22T00:12:59.265Z,99.99
2022-09-22T00:13:59.201Z,99.99
2022-09-22T00:14:59.219Z,99.99
2022-09-22T00:15:59.195Z,99.99
2022-09-22T00:16:59.165Z,99.99
2022-09-22T00:17:59.149Z,99.99
2022-09-22T00:18:59.180Z,99.99
2022-09-22T00:19:59.166Z,99.99
2022-09-22T00:20:59.120Z,99.99
2022-09-22T00:21:59.112Z,99.99
2022-09-22T00:22:59.088Z,99.99
2022-09-22T00:23:59.091Z,99.99
2022-09-22T00:24:59.127Z,99.99
2022-09-22T00:25:59.106Z,99.99
2022-09-22T00:26:59.046Z,99.99
2022-09-22T00:27:59.033Z,99.99
2022-09-22T00:28:59.072Z,99.99
2022-09-22T00:29:59.050Z,99.99
2022-09-22T00:30:59.011Z,99.99
2022-09-22T00:32:02.282Z,99.99
2022-09-22T00:32:59.991Z,99.99
2022-09-22T00:33:58.978Z,99.99
2022-09-22T00:34:58.982Z,99.99
2022-09-22T00:35:58.955Z,99.99
2022-09-22T00:36:59.014Z,99.99
2022-09-22T00:37:58.930Z,99.99
2022-09-22T00:38:58.966Z,99.99
2022-09-22T00:39:58.999Z,99.99
2022-09-22T00:40:58.932Z,99.99
2022-09-22T00:41:58.917Z,99.99
2022-09-22T00:42:58.868Z,99.99
2022-09-22T00:43:58.864Z,99.99
2022-09-22T00:44:58.876Z,99.99
2022-09-22T00:45:58.841Z,99.99
2022-09-22T00:46:58.932Z,99.99
2022-09-22T00:47:58.934Z,99.99
2022-09-22T00:48:58.839Z,99.99
2022-09-22T00:49:58.826Z,99.99
2022-09-22T00:50:58.787Z,99.99
2022-09-22T00:51:58.777Z,99.99
2022-09-22T00:52:58.764Z,99.99
2022-09-22T00:53:59.961Z,99.99
2022-09-22T00:54:58.765Z,99.99
2022-09-22T00:55:58.754Z,99.99
2022-09-22T00:56:58.746Z,99.99
2022-09-22T00:57:58.728Z,99.99
2022-09-22T00:58:58.689Z,99.99
2022-09-22T00:59:58.716Z,99.99
2022-09-22T01:00:58.835Z,99.99
2022-09-22T01:01:58.878Z,99.99
2022-09-22T01:02:58.656Z,99.99
2022-09-22T01:03:58.710Z,99.99
2022-09-22T01:04:58.661Z,99.99
2022-09-22T01:05:58.660Z,99.99
2022-09-22T01:06:58.632Z,99.99
2022-09-22T01:07:58.653Z,99.99
2022-09-22T01:08:58.587Z,99.99
2022-09-22T01:09:58.651Z,99.99
2022-09-22T01:10:58.562Z,99.99
2022-09-22T01:11:58.569Z,99.99
2022-09-22T01:12:58.562Z,99.99
2022-09-22T01:13:58.587Z,99.99
2022-09-22T01:14:58.552Z,99.99
2022-09-22T01:15:58.569Z,99.99
2022-09-22T01:16:58.497Z,99.99
2022-09-22T01:17:58.498Z,99.99
2022-09-22T01:18:58.502Z,99.99
2022-09-22T01:19:58.486Z,99.99
2022-09-22T01:20:58.451Z,99.99
2022-09-22T01:21:58.446Z,99.99
2022-09-22T01:22:58.433Z,99.99
2022-09-22T01:23:58.423Z,99.99
2022-09-22T01:24:58.440Z,99.99
2022-09-22T01:25:58.457Z,99.99
2022-09-22T01:26:58.405Z,99.99
2022-09-22T01:27:58.408Z,99.99
2022-09-22T01:28:58.373Z,99.99
2022-09-22T01:29:58.428Z,99.99
2022-09-22T01:30:58.433Z,99.99
2022-09-22T01:31:58.348Z,99.99
2022-09-22T01:32:58.344Z,99.99
2022-09-22T01:33:58.317Z,99.99
2022-09-22T01:34:58.307Z,99.99
2022-09-22T01:35:58.307Z,99.99
2022-09-22T01:36:58.323Z,99.99
2022-09-22T01:37:58.368Z,99.99
2022-09-22T01:38:58.292Z,99.99
2022-09-22T01:39:58.277Z,99.99
2022-09-22T01:40:58.237Z,99.99
2022-09-22T01:41:58.275Z,99.99
2022-09-22T01:42:58.274Z,99.99
2022-09-22T01:43:58.225Z,99.99
2022-09-22T01:44:58.203Z,99.99
2022-09-22T01:45:58.306Z,99.99
2022-09-22T01:46:58.237Z,99.99
2022-09-22T01:47:58.177Z,99.99
2022-09-22T01:48:58.166Z,99.99
2022-09-22T01:49:58.170Z,99.99
2022-09-22T01:50:58.193Z,99.99
2022-09-22T01:51:58.161Z,99.99
2022-09-22T01:52:58.218Z,99.99
2022-09-22T01:53:58.116Z,99.99
2022-09-22T01:54:58.127Z,99.99
2022-09-22T01:55:58.083Z,99.99
2022-09-22T01:56:58.113Z,99.99
2022-09-22T01:57:58.062Z,99.99
2022-09-22T01:58:58.047Z,99.99
2022-09-22T01:59:58.055Z,99.99
2022-09-22T02:00:58.148Z,99.99
2022-09-22T02:01:58.186Z,99.99
2022-09-22T02:02:58.105Z,99.99
2022-09-22T02:03:58.013Z,99.99
2022-09-22T02:04:57.978Z,99.99
2022-09-22T02:05:57.990Z,99.99
2022-09-22T02:06:57.964Z,99.99
2022-09-22T02:07:57.991Z,99.99
2022-09-22T02:08:57.950Z,99.99
2022-09-22T02:09:57.931Z,99.99
2022-09-22T02:10:57.929Z,99.99
2022-09-22T02:11:57.919Z,99.99
2022-09-22T02:12:57.909Z,99.99
2022-09-22T02:13:57.960Z,99.99
2022-09-22T02:14:57.898Z,99.99
2022-09-22T02:15:57.951Z,99.99
2022-09-22T02:16:57.877Z,99.99
2022-09-22T02:17:57.862Z,99.99
2022-09-22T02:19:10.172Z,99.99
2022-09-22T02:19:58.843Z,99.99
2022-09-22T02:20:57.815Z,99.99
2022-09-22T02:21:57.816Z,99.99
2022-09-22T02:22:57.933Z,99.99
2022-09-22T02:23:57.810Z,99.99
2022-09-22T02:24:57.804Z,99.99
2022-09-22T02:25:57.773Z,99.99
2022-09-22T02:26:57.759Z,99.99
2022-09-22T02:27:57.744Z,99.99
2022-09-22T02:28:57.855Z,99.99
2022-09-22T02:29:57.725Z,99.99
2022-09-22T02:31:18.495Z,99.99
2022-09-22T02:31:58.756Z,99.99
2022-09-22T02:32:57.708Z,99.99
2022-09-22T02:33:57.711Z,99.99
2022-09-22T02:34:57.678Z,99.99
2022-09-22T02:35:57.653Z,99.99
2022-09-22T02:36:57.658Z,99.99
2022-09-22T02:37:57.634Z,99.99
2022-09-22T02:38:57.779Z,99.99
2022-09-22T02:39:57.634Z,99.99
2022-09-22T02:40:57.627Z,99.99
2022-09-22T02:41:57.629Z,99.99
2022-09-22T02:42:57.657Z,99.99
2022-09-22T02:43:57.597Z,99.99
2022-09-22T02:44:57.596Z,99.99
2022-09-22T02:45:57.623Z,99.99
2022-09-22T02:46:57.566Z,99.99
2022-09-22T02:47:57.524Z,99.99
2022-09-22T02:48:57.537Z,99.99
2022-09-22T02:49:57.523Z,99.99
2022-09-22T02:50:57.526Z,99.99
2022-09-22T02:51:57.486Z,99.99
2022-09-22T02:52:57.475Z,99.99
2022-09-22T02:53:57.488Z,99.99
2022-09-22T02:54:57.449Z,99.99
2022-09-22T02:55:57.434Z,99.99
2022-09-22T02:56:57.447Z,99.99
2022-09-22T02:57:57.418Z,99.99
2022-09-22T02:58:58.552Z,99.99
2022-09-22T02:59:57.395Z,99.99
2022-09-22T03:00:57.393Z,99.99
2022-09-22T03:01:57.452Z,99.99
2022-09-22T03:02:57.386Z,99.99
2022-09-22T03:03:57.363Z,99.99
2022-09-22T03:04:57.379Z,99.99
2022-09-22T03:05:57.358Z,99.99
2022-09-22T03:06:57.320Z,99.99
2022-09-22T03:07:57.309Z,99.99
2022-09-22T03:08:57.336Z,99.99
2022-09-22T03:09:57.282Z,99.99
2022-09-22T03:10:57.297Z,99.99
2022-09-22T03:11:57.283Z,99.99
2022-09-22T03:13:15.512Z,99.99
2022-09-22T03:13:58.271Z,99.99
2022-09-22T03:14:57.257Z,99.99
2022-09-22T03:15:57.270Z,99.99
2022-09-22T03:16:57.211Z,99.99
2022-09-22T03:17:57.237Z,99.99
2022-09-22T03:18:57.219Z,99.99
2022-09-22T03:19:57.182Z,99.99
2022-09-22T03:20:57.171Z,99.99
2022-09-22T03:21:57.190Z,99.99
2022-09-22T03:22:57.168Z,99.99
2022-09-22T03:23:57.199Z,99.99
2022-09-22T03:24:57.131Z,99.99
2022-09-22T03:25:57.116Z,99.99
2022-09-22T03:26:57.109Z,99.99
2022-09-22T03:27:57.113Z,99.99
2022-09-22T03:28:57.092Z,99.99
2022-09-22T03:29:57.082Z,99.99
2022-09-22T03:30:57.117Z,99.99
2022-09-22T03:31:57.060Z,99.99
2022-09-22T03:32:57.083Z,99.99
2022-09-22T03:33:57.054Z,99.99
2022-09-22T03:34:57.033Z,99.99
2022-09-22T03:35:57.109Z,99.99
2022-09-22T03:36:57.019Z,99.99
2022-09-22T03:37:57.044Z,99.99
2022-09-22T03:38:57.032Z,99.99
2022-09-22T03:39:56.963Z,99.99
2022-09-22T03:40:56.982Z,99.99
2022-09-22T03:41:56.948Z,99.99
2022-09-22T03:42:56.952Z,99.99
2022-09-22T03:43:56.949Z,99.99
2022-09-22T03:44:56.932Z,99.99
2022-09-22T03:45:56.969Z,99.99
2022-09-22T03:46:56.914Z,99.99
2022-09-22T03:47:56.922Z,99.99
2022-09-22T03:48:56.871Z,99.99
2022-09-22T03:49:56.855Z,99.99
2022-09-22T03:50:56.866Z,99.99
2022-09-22T03:51:56.866Z,99.99
2022-09-22T03:52:56.826Z,99.99
2022-09-22T03:53:56.980Z,99.99
2022-09-22T03:54:56.843Z,99.99
2022-09-22T03:55:56.826Z,99.99
2022-09-22T03:56:56.796Z,99.99
2022-09-22T03:57:56.809Z,99.99
2022-09-22T03:58:56.797Z,99.99
2022-09-22T03:59:56.748Z,99.99
2022-09-22T04:00:56.879Z,99.99
2022-09-22T04:01:58.354Z,99.99
2022-09-22T04:02:56.731Z,99.99
2022-09-22T04:03:56.747Z,99.99
2022-09-22T04:04:56.718Z,99.99
2022-09-22T04:05:56.689Z,99.99
2022-09-22T04:06:56.701Z,99.99
2022-09-22T04:07:56.739Z,99.99
2022-09-22T04:08:56.695Z,99.99
2022-09-22T04:09:56.662Z,99.99
2022-09-22T04:10:56.641Z,99.99
2022-09-22T04:11:56.667Z,99.99
2022-09-22T04:12:56.622Z,99.99
2022-09-22T04:13:56.605Z,99.99
2022-09-22T04:14:56.630Z,99.99
2022-09-22T04:15:56.602Z,99.99
2022-09-22T04:16:56.713Z,99.99
2022-09-22T04:17:56.699Z,99.99
2022-09-22T04:18:56.558Z,99.99
2022-09-22T04:19:56.563Z,99.99
2022-09-22T04:20:56.528Z,99.99
2022-09-22T04:21:57.410Z,99.99
2022-09-22T04:22:56.566Z,99.99
2022-09-22T04:23:56.525Z,99.99
2022-09-22T04:24:56.480Z,99.99
2022-09-22T04:25:56.497Z,99.99
2022-09-22T04:27:18.510Z,99.99
2022-09-22T04:27:58.807Z,99.99
2022-09-22T04:28:56.460Z,99.99
2022-09-22T04:29:56.465Z,99.99
2022-09-22T04:30:56.480Z,99.99
2022-09-22T04:31:56.440Z,99.99
2022-09-22T04:32:56.416Z,99.99
2022-09-22T04:33:56.392Z,99.99
2022-09-22T04:34:56.372Z,99.99
2022-09-22T04:35:56.419Z,99.99
2022-09-22T04:36:56.354Z,99.99
2022-09-22T04:37:56.361Z,99.99
2022-09-22T04:38:56.342Z,99.99
2022-09-22T04:39:56.344Z,99.99
2022-09-22T04:40:56.310Z,99.99
2022-09-22T04:41:56.366Z,99.99
2022-09-22T04:42:56.336Z,99.99
2022-09-22T04:43:56.313Z,99.99
2022-09-22T04:44:56.271Z,99.99
2022-09-22T04:45:56.298Z,99.99
2022-09-22T04:46:56.290Z,99.99
2022-09-22T04:47:56.236Z,99.99
2022-09-22T04:48:56.233Z,99.99
2022-09-22T04:49:56.276Z,99.99
2022-09-22T04:50:56.205Z,99.99
2022-09-22T04:51:56.217Z,99.99
2022-09-22T04:52:56.177Z,99.99
2022-09-22T04:53:56.173Z,99.99
2022-09-22T04:54:56.167Z,99.99
2022-09-22T04:55:56.172Z,99.99
2022-09-22T04:56:56.193Z,99.99
2022-09-22T04:57:56.147Z,99.99
2022-09-22T04:58:56.123Z,99.99
2022-09-22T04:59:56.107Z,99.99
2022-09-22T05:00:56.171Z,99.99
2022-09-22T05:01:56.109Z,99.99
2022-09-22T05:02:56.167Z,99.99
2022-09-22T05:03:56.065Z,99.99
2022-09-22T05:04:56.058Z,99.99
2022-09-22T05:05:56.037Z,99.99
2022-09-22T05:06:56.035Z,99.99
2022-09-22T05:07:56.034Z,99.99
2022-09-22T05:08:56.041Z,99.99
2022-09-22T05:09:56.015Z,99.99
2022-09-22T05:10:55.998Z,99.99
2022-09-22T05:11:55.973Z,99.99
2022-09-22T05:12:55.985Z,99.99
2022-09-22T05:13:55.976Z,99.99
2022-09-22T05:14:55.955Z,99.99
2022-09-22T05:15:55.962Z,99.99
2022-09-22T05:16:55.997Z,99.99
2022-09-22T05:17:55.930Z,99.99
2022-09-22T05:18:55.901Z,99.99
2022-09-22T05:19:55.893Z,99.99
2022-09-22T05:20:55.878Z,99.99
2022-09-22T05:21:55.868Z,99.99
2022-09-22T05:22:55.901Z,99.99
2022-09-22T05:23:55.879Z,99.99
2022-09-22T05:24:55.874Z,99.99
2022-09-22T05:25:55.825Z,99.99
2022-09-22T05:26:55.818Z,99.99
2022-09-22T05:27:55.849Z,99.99
2022-09-22T05:28:55.799Z,99.99
2022-09-22T05:29:55.805Z,99.99
2022-09-22T05:30:55.806Z,99.99
2022-09-22T05:31:55.888Z,99.99
2022-09-22T05:32:55.825Z,99.99
2022-09-22T05:33:55.755Z,99.99
2022-09-22T05:34:55.749Z,99.99
2022-09-22T05:35:55.717Z,99.99
2022-09-22T05:36:55.710Z,99.99
2022-09-22T05:37:55.748Z,99.99
2022-09-22T05:38:55.741Z,99.99
2022-09-22T05:39:55.671Z,99.99
2022-09-22T05:40:55.680Z,99.99
2022-09-22T05:41:55.706Z,99.99
2022-09-22T05:42:55.665Z,99.99
2022-09-22T05:43:55.674Z,99.99
2022-09-22T05:44:55.632Z,99.99
2022-09-22T05:45:55.712Z,99.99
2022-09-22T05:46:55.608Z,99.99
2022-09-22T05:47:55.610Z,99.99
2022-09-22T05:48:55.670Z,99.99
2022-09-22T05:49:55.574Z,99.99
2022-09-22T05:50:55.576Z,99.99
2022-09-22T05:51:55.548Z,99.99
2022-09-22T05:52:55.552Z,99.99
2022-09-22T05:53:55.554Z,99.99
2022-09-22T05:54:55.519Z,99.99
2022-09-22T05:55:55.546Z,99.99
2022-09-22T05:56:55.530Z,99.99
2022-09-22T05:57:55.479Z,99.99
2022-09-22T05:58:55.519Z,99.99
2022-09-22T05:59:55.493Z,99.99
2022-09-22T06:00:55.487Z,99.99
2022-09-22T06:01:59.508Z,99.99
2022-09-22T06:02:55.563Z,99.99
2022-09-22T06:03:55.422Z,99.99
2022-09-22T06:04:55.420Z,99.99
2022-09-22T06:05:55.409Z,99.99
2022-09-22T06:06:55.389Z,99.99
2022-09-22T06:07:55.420Z,99.99
2022-09-22T06:08:55.419Z,99.99
2022-09-22T06:09:55.360Z,99.99
2022-09-22T06:10:55.352Z,99.99
2022-09-22T06:11:55.333Z,99.99
2022-09-22T06:12:55.344Z,99.99
2022-09-22T06:13:55.316Z,99.99
2022-09-22T06:14:55.295Z,99.99
2022-09-22T06:15:55.361Z,99.99
2022-09-22T06:16:55.291Z,99.99
2022-09-22T06:17:55.283Z,99.99
2022-09-22T06:18:55.256Z,99.99
2022-09-22T06:19:55.257Z,99.99
2022-09-22T06:20:55.265Z,99.99
2022-09-22T06:21:55.224Z,99.99
2022-09-22T06:22:55.266Z,99.99
2022-09-22T06:23:55.202Z,99.99
2022-09-22T06:24:55.196Z,99.99
2022-09-22T06:25:55.184Z,99.99
2022-09-22T06:26:55.206Z,99.99
2022-09-22T06:27:55.193Z,99.99
2022-09-22T06:28:55.147Z,98.32
2022-09-22T06:29:55.138Z,96.67
2022-09-22T06:30:55.143Z,97.65
2022-09-22T06:31:55.162Z,96.73
2022-09-22T06:32:55.124Z,95.66
2022-09-22T06:33:55.120Z,93.62
2022-09-22T06:34:55.090Z,94.59
2022-09-22T06:35:55.074Z,90.86
2022-09-22T06:36:55.085Z,93.79
2022-09-22T06:37:55.140Z,91.13
2022-09-22T06:38:55.040Z,90.72
2022-09-22T06:39:55.028Z,89.25
2022-09-22T06:40:55.095Z,90.02
2022-09-22T06:41:55.020Z,89.15
2022-09-22T06:42:55.143Z,88.37
2022-09-22T06:43:55.006Z,88.78
2022-09-22T06:44:55.008Z,88.17
2022-09-22T06:45:55.065Z,88.78
2022-09-22T06:46:54.968Z,89.09
2022-09-22T06:47:55.051Z,89.03
2022-09-22T06:48:54.950Z,88.92
2022-09-22T06:49:54.949Z,88.96
2022-09-22T06:50:54.926Z,89.80
2022-09-22T06:51:54.922Z,90.06
2022-09-22T06:52:54.902Z,90.02
2022-09-22T06:53:54.953Z,86.20
2022-09-22T06:54:54.893Z,87.08
2022-09-22T06:55:54.859Z,85.41
2022-09-22T06:56:54.850Z,87.00
2022-09-22T06:57:54.899Z,86.86
2022-09-22T06:59:09.288Z,82.98
2022-09-22T06:59:55.829Z,85.13
2022-09-22T07:00:54.985Z,83.70
2022-09-22T07:01:54.907Z,84.00
2022-09-22T07:02:54.846Z,82.78
2022-09-22T07:03:54.773Z,82.17
2022-09-22T07:04:54.759Z,83.80
2022-09-22T07:05:54.828Z,82.17
2022-09-22T07:06:54.759Z,82.31
2022-09-22T07:07:54.771Z,82.92
2022-09-22T07:08:54.716Z,83.70
2022-09-22T07:09:54.717Z,82.84
2022-09-22T07:10:54.695Z,80.63
2022-09-22T07:11:54.688Z,79.71
2022-09-22T07:12:54.719Z,80.63
2022-09-22T07:13:54.729Z,82.42
2022-09-22T07:14:54.646Z,80.76
2022-09-22T07:15:54.671Z,82.10
2022-09-22T07:16:54.637Z,80.37
2022-09-22T07:17:54.631Z,78.00
2022-09-22T07:18:54.631Z,76.61
2022-09-22T07:19:54.647Z,75.90
2022-09-22T07:20:54.582Z,75.43
2022-09-22T07:21:54.610Z,76.54
2022-09-22T07:22:54.579Z,76.81
2022-09-22T07:23:54.553Z,74.95
2022-09-22T07:24:54.540Z,74.95
2022-09-22T07:25:54.542Z,74.88
2022-09-22T07:26:54.533Z,76.78
2022-09-22T07:27:54.530Z,76.68
2022-09-22T07:28:54.503Z,75.70
2022-09-22T07:29:54.496Z,77.43
2022-09-22T07:30:54.470Z,77.59
2022-09-22T07:31:54.607Z,75.86
2022-09-22T07:32:54.546Z,74.17
2022-09-22T07:33:54.466Z,73.97
2022-09-22T07:34:54.436Z,72.28
2022-09-22T07:35:54.445Z,74.91
2022-09-22T07:36:54.421Z,72.81
2022-09-22T07:37:54.497Z,72.58
2022-09-22T07:38:54.386Z,74.00
2022-09-22T07:39:54.484Z,71.47
2022-09-22T07:40:54.369Z,72.48
2022-09-22T07:41:54.367Z,71.97
2022-09-22T07:42:54.390Z,70.56
2022-09-22T07:43:54.338Z,72.68
2022-09-22T07:44:54.327Z,69.95
2022-09-22T07:45:54.358Z,71.47
2022-09-22T07:46:54.358Z,70.89
2022-09-22T07:47:54.447Z,73.59
2022-09-22T07:48:54.274Z,74.54
2022-09-22T07:49:54.281Z,71.23
2022-09-22T07:50:54.259Z,71.57
2022-09-22T07:51:54.258Z,74.04
2022-09-22T07:52:54.292Z,72.68
2022-09-22T07:53:54.264Z,71.47
2022-09-22T07:54:54.216Z,70.73
2022-09-22T07:55:54.202Z,72.41
2022-09-22T07:56:54.191Z,72.48
2022-09-22T07:57:54.238Z,71.23
2022-09-22T07:58:54.170Z,70.22
2022-09-22T07:59:54.210Z,68.77
2022-09-22T08:00:54.225Z,68.67
2022-09-22T08:01:54.214Z,69.24
2022-09-22T08:02:54.156Z,70.66
2022-09-22T08:03:54.143Z,70.29
2022-09-22T08:04:54.107Z,69.78
2022-09-22T08:05:54.816Z,72.51
2022-09-22T08:06:54.094Z,70.05
2022-09-22T08:07:54.139Z,72.48
2022-09-22T08:08:54.092Z,71.53
2022-09-22T08:09:54.070Z,73.76
2022-09-22T08:10:54.080Z,74.37
2022-09-22T08:11:54.080Z,71.53
2022-09-22T08:12:54.037Z,70.46
2022-09-22T08:13:54.035Z,69.51
2022-09-22T08:14:53.990Z,69.62
2022-09-22T08:15:54.065Z,69.71
2022-09-22T08:16:54.225Z,69.92
2022-09-22T08:17:54.010Z,69.85
2022-09-22T08:18:53.977Z,70.56
2022-09-22T08:19:53.939Z,71.37
2022-09-22T08:20:53.935Z,70.86
2022-09-22T08:21:54.096Z,70.49
2022-09-22T08:22:53.926Z,69.24
2022-09-22T08:23:53.957Z,68.84
2022-09-22T08:24:53.905Z,69.45
2022-09-22T08:25:53.939Z,68.54
2022-09-22T08:26:53.880Z,68.71
2022-09-22T08:27:53.895Z,68.81
2022-09-22T08:28:53.879Z,69.52
2022-09-22T08:29:53.831Z,69.55
2022-09-22T08:30:53.818Z,69.01
2022-09-22T08:31:53.890Z,67.97
2022-09-22T08:32:53.848Z,67.77
2022-09-22T08:33:53.812Z,67.87
2022-09-22T08:34:53.833Z,65.78
2022-09-22T08:35:53.763Z,69.38
2022-09-22T08:36:53.749Z,67.36
2022-09-22T08:37:53.757Z,64.47
2022-09-22T08:38:53.791Z,67.90
2022-09-22T08:39:53.733Z,67.50
2022-09-22T08:40:53.805Z,66.65
2022-09-22T08:41:53.727Z,66.55
2022-09-22T08:42:53.701Z,68.54
2022-09-22T08:43:53.680Z,68.41
2022-09-22T08:44:53.704Z,67.47
2022-09-22T08:45:53.729Z,67.07
2022-09-22T08:46:53.725Z,65.92
2022-09-22T08:47:53.652Z,69.85
2022-09-22T08:48:53.624Z,69.92
2022-09-22T08:49:53.614Z,67.07
2022-09-22T08:50:53.626Z,65.75
2022-09-22T08:51:53.595Z,69.15
2022-09-22T08:52:53.612Z,69.12
2022-09-22T08:53:53.565Z,65.36
2022-09-22T08:54:53.625Z,66.25
2022-09-22T08:55:53.555Z,68.77
2022-09-22T08:56:53.562Z,69.05
2022-09-22T08:57:53.576Z,69.12
2022-09-22T08:58:53.632Z,68.24
2022-09-22T08:59:53.514Z,65.62
2022-09-22T09:00:53.538Z,68.24
2022-09-22T09:01:53.535Z,67.58
2022-09-22T09:02:53.598Z,63.76
2022-09-22T09:03:53.611Z,63.82
2022-09-22T09:04:53.450Z,63.73
2022-09-22T09:05:53.456Z,67.54
2022-09-22T09:06:53.460Z,70.97
2022-09-22T09:07:53.463Z,65.32
2022-09-22T09:08:53.405Z,67.74
2022-09-22T09:09:53.414Z,65.49
2022-09-22T09:10:53.438Z,67.11
2022-09-22T09:11:53.364Z,64.09
2022-09-22T09:12:53.428Z,63.05
2022-09-22T09:13:53.386Z,64.49
2022-09-22T09:14:53.352Z,63.68
2022-09-22T09:15:53.372Z,64.26
2022-09-22T09:16:53.317Z,62.27
2022-09-22T09:17:53.352Z,68.91
2022-09-22T09:18:53.346Z,64.09
2022-09-22T09:19:53.286Z,64.15
2022-09-22T09:20:53.268Z,65.83
2022-09-22T09:21:53.326Z,63.28
2022-09-22T09:22:53.316Z,66.00
2022-09-22T09:25:54.238Z,62.15
2022-09-22T09:26:53.307Z,66.10
2022-09-22T09:27:53.197Z,62.30
2022-09-22T09:28:53.227Z,65.12
2022-09-22T09:29:53.229Z,64.09
2022-09-22T09:30:53.229Z,65.06
2022-09-22T09:31:53.156Z,65.19
2022-09-22T09:32:53.185Z,61.85
2022-09-22T09:33:53.191Z,60.21
2022-09-22T09:34:55.818Z,60.64
2022-09-22T09:35:53.123Z,62.07
2022-09-22T09:36:53.178Z,62.66
2022-09-22T09:37:53.113Z,63.95
2022-09-22T09:38:53.103Z,63.42
2022-09-22T09:39:53.076Z,61.30
2022-09-22T09:40:53.075Z,65.87
2022-09-22T09:41:53.086Z,63.73
2022-09-22T09:42:53.210Z,63.46
2022-09-22T09:43:53.370Z,59.55
2022-09-22T09:44:53.085Z,60.78
2022-09-22T09:45:53.038Z,62.29
2022-09-22T09:46:52.984Z,61.79
2022-09-22T09:47:59.038Z,61.49
2022-09-22T09:48:54.061Z,60.45
2022-09-22T09:49:53.172Z,60.96
2022-09-22T09:50:53.177Z,62.76
2022-09-22T09:51:53.010Z,60.82
2022-09-22T09:52:53.007Z,58.84
2022-09-22T09:53:52.939Z,58.72
2022-09-22T09:54:52.938Z,59.45
2022-09-22T09:55:52.957Z,62.36
2022-09-22T09:56:52.888Z,59.75
2022-09-22T09:57:52.901Z,61.58
2022-09-22T09:58:52.934Z,57.67
2022-09-22T09:59:52.959Z,62.83
2022-09-22T10:00:52.830Z,60.36
2022-09-22T10:01:52.898Z,58.73
2022-09-22T10:02:52.890Z,57.46
2022-09-22T10:03:52.884Z,54.30
2022-09-22T10:04:52.819Z,59.55
2022-09-22T10:05:52.812Z,55.68
2022-09-22T10:06:52.793Z,57.95
2022-09-22T10:07:53.156Z,61.94
2022-09-22T10:08:52.777Z,59.00
2022-09-22T10:09:52.733Z,58.90
2022-09-22T10:10:52.727Z,59.50
2022-09-22T10:11:52.718Z,61.34
2022-09-22T10:12:52.724Z,62.89
2022-09-22T10:13:52.726Z,57.59
2022-09-22T10:14:52.691Z,59.60
2022-09-22T10:15:52.741Z,56.19
2022-09-22T10:16:52.732Z,59.98
2022-09-22T10:17:52.907Z,63.56
2022-09-22T10:18:52.646Z,60.55
2022-09-22T10:19:52.632Z,61.02
2022-09-22T10:20:52.615Z,59.01
2022-09-22T10:21:52.616Z,59.79
2022-09-22T10:22:52.709Z,58.76
2022-09-22T10:23:52.653Z,58.91
2022-09-22T10:24:52.613Z,57.68
2022-09-22T10:25:53.373Z,58.75
2022-09-22T10:26:52.757Z,55.32
2022-09-22T10:27:52.620Z,57.35
2022-09-22T10:28:52.545Z,57.60
2022-09-22T10:29:52.517Z,58.73
2022-09-22T10:30:52.555Z,61.81
2022-09-22T10:31:52.550Z,57.68
2022-09-22T10:32:52.515Z,59.28
2022-09-22T10:33:52.542Z,59.50
2022-09-22T10:34:52.486Z,61.61
2022-09-22T10:35:53.258Z,60.31
2022-09-22T10:36:52.463Z,58.20
2022-09-22T10:37:52.468Z,60.35
2022-09-22T10:38:54.571Z,58.07
2022-09-22T10:39:53.432Z,59.68
2022-09-22T10:40:52.505Z,57.75
2022-09-22T10:41:52.472Z,59.22
2022-09-22T10:42:52.420Z,57.55
2022-09-22T10:43:52.466Z,59.00
2022-09-22T10:44:52.434Z,61.81
2022-09-22T10:45:52.387Z,58.53
2022-09-22T10:46:52.396Z,59.06
2022-09-22T10:47:52.376Z,60.71
2022-09-22T10:48:52.332Z,57.63
2022-09-22T10:49:52.346Z,58.76
2022-09-22T10:50:52.344Z,56.63
2022-09-22T10:51:52.347Z,60.24
2022-09-22T10:52:52.378Z,58.81
2022-09-22T10:53:52.342Z,54.97
2022-09-22T10:54:52.310Z,57.17
2022-09-22T10:55:52.288Z,55.47
2022-09-22T10:56:52.261Z,57.55
2022-09-22T10:57:52.267Z,58.07
2022-09-22T10:58:52.219Z,59.50
2022-09-22T10:59:52.229Z,55.98
2022-09-22T11:00:52.905Z,57.95
2022-09-22T11:01:52.297Z,60.99
2022-09-22T11:02:52.271Z,62.49
2022-09-22T11:03:52.176Z,57.29
2022-09-22T11:04:52.366Z,54.02
2022-09-22T11:05:52.201Z,57.87
2022-09-22T11:06:52.126Z,57.72
2022-09-22T11:07:52.172Z,56.87
2022-09-22T11:08:52.106Z,53.59
2022-09-22T11:09:52.142Z,57.69
2022-09-22T11:10:52.115Z,56.09
2022-09-22T11:11:52.096Z,56.37
2022-09-22T11:12:52.078Z,55.79
2022-09-22T11:13:52.046Z,54.17
2022-09-22T11:14:52.038Z,61.79
2022-09-22T11:15:52.106Z,55.99
2022-09-22T11:16:52.020Z,60.89
2022-09-22T11:17:52.014Z,57.46
2022-09-22T11:18:52.039Z,55.14
2022-09-22T11:19:52.238Z,53.22
2022-09-22T11:20:52.311Z,56.11
2022-09-22T11:21:52.044Z,54.11
2022-09-22T11:22:51.969Z,55.32
2022-09-22T11:23:51.939Z,57.97
2022-09-22T11:24:51.960Z,59.56
2022-09-22T11:25:51.931Z,58.17
2022-09-22T11:26:51.906Z,57.24
2022-09-22T11:27:51.985Z,54.54
2022-09-22T11:29:01.943Z,55.40
2022-09-22T11:29:52.916Z,54.42
2022-09-22T11:30:51.954Z,60.48
2022-09-22T11:31:51.892Z,58.87
2022-09-22T11:32:51.870Z,55.37
2022-09-22T11:33:51.843Z,57.50
2022-09-22T11:34:51.908Z,57.68
2022-09-22T11:35:51.805Z,59.11
2022-09-22T11:36:51.994Z,57.65
2022-09-22T11:37:52.508Z,56.39
2022-09-22T11:38:51.775Z,55.47
2022-09-22T11:39:51.768Z,55.59
2022-09-22T11:40:51.837Z,57.39
2022-09-22T11:41:51.744Z,57.57
2022-09-22T11:42:51.809Z,56.71
2022-09-22T11:43:53.463Z,57.78
2022-09-22T11:44:51.722Z,55.51
2022-09-22T11:45:52.156Z,54.57
2022-09-22T11:46:52.699Z,55.44
2022-09-22T11:47:51.694Z,59.02
2022-09-22T11:48:51.680Z,55.80
2022-09-22T11:49:51.655Z,55.52
2022-09-22T11:50:51.681Z,57.54
2022-09-22T11:51:51.681Z,57.87
2022-09-22T11:52:51.639Z,60.10
2022-09-22T11:53:51.636Z,60.53
2022-09-22T11:54:52.775Z,56.96
2022-09-22T11:55:52.500Z,58.09
2022-09-22T11:56:51.593Z,56.08
2022-09-22T11:57:51.591Z,57.96
2022-09-22T11:58:51.592Z,61.38
2022-09-22T11:59:51.580Z,57.65
2022-09-22T12:00:51.567Z,57.87
2022-09-22T12:01:51.534Z,61.68
2022-09-22T12:02:51.648Z,55.47
2022-09-22T12:03:52.357Z,57.52
2022-09-22T12:04:51.677Z,56.46
2022-09-22T12:05:51.485Z,54.74
2022-09-22T12:06:51.500Z,56.34
2022-09-22T12:07:51.544Z,57.26
2022-09-22T12:08:51.489Z,57.46
2022-09-22T12:09:51.459Z,60.24
2022-09-22T12:10:51.452Z,55.84
2022-09-22T12:11:51.427Z,58.61
2022-09-22T12:12:53.143Z,56.46
2022-09-22T12:13:51.952Z,54.99
2022-09-22T12:14:51.416Z,54.69
2022-09-22T12:15:51.514Z,58.18
2022-09-22T12:16:51.378Z,57.68
2022-09-22T12:17:51.469Z,54.11
2022-09-22T12:18:51.348Z,53.69
2022-09-22T12:19:51.338Z,59.38
2022-09-22T12:20:51.558Z,55.49
2022-09-22T12:21:51.407Z,55.58
2022-09-22T12:22:51.646Z,53.09
2022-09-22T12:23:51.636Z,57.21
2022-09-22T12:24:51.286Z,53.31
2022-09-22T12:25:51.305Z,56.16
2022-09-22T12:26:51.309Z,59.05
2022-09-22T12:27:51.301Z,55.80
2022-09-22T12:28:51.285Z,57.80
2022-09-22T12:29:51.312Z,58.89
2022-09-22T12:30:51.337Z,57.37
2022-09-22T12:31:51.505Z,54.04
2022-09-22T12:32:51.199Z,55.41
2022-09-22T12:33:51.203Z,56.08
2022-09-22T12:34:51.170Z,53.46
2022-09-22T12:35:51.162Z,53.66
2022-09-22T12:36:51.175Z,58.97
2022-09-22T12:37:51.147Z,55.51
2022-09-22T12:38:51.552Z,53.64
2022-09-22T12:39:51.392Z,55.73
2022-09-22T12:40:52.655Z,55.06
2022-09-22T12:41:51.151Z,54.79
2022-09-22T12:42:51.116Z,56.48
2022-09-22T12:43:51.116Z,55.86
2022-09-22T12:44:51.103Z,54.06
2022-09-22T12:45:51.093Z,54.11
2022-09-22T12:46:51.093Z,55.57
2022-09-22T12:47:51.205Z,56.37
2022-09-22T12:48:51.783Z,57.69
2022-09-22T12:49:51.240Z,59.83
2022-09-22T12:50:51.016Z,58.61
2022-09-22T12:51:51.003Z,59.08
2022-09-22T12:52:50.977Z,56.68
2022-09-22T12:53:50.969Z,54.11
2022-09-22T12:54:51.171Z,55.74